sensor_id;sensor_type;location;lat;lon;timestamp;P1;durP1;ratioP1;P2;durP2;ratioP2
26594;SDS011;14238;49.496;8.154;2022-12-18T00:01:02;27.67;;;19.02;;
26594;SDS011;14238;49.496;8.154;2022-12-18T00:03:32;29.45;;;19.77;;
26594;SDS011;14238;49.496;8.154;2022-12-18T00:05:58;35.08;;;20.20;;
26594;SDS011;14238;49.496;8.154;2022-12-18T00:08:24;29.37;;;19.37;;
26594;SDS011;14238;49.496;8.154;2022-12-18T00:10:49;33.97;;;18.43;;
26594;SDS011;14238;49.496;8.154;2022-12-18T00:13:15;27.73;;;19.97;;
26594;SDS011;14238;49.496;8.154;2022-12-18T00:15:41;31.43;;;18.97;;
26594;SDS011;14238;49.496;8.154;2022-12-18T00:18:07;31.93;;;21.40;;
26594;SDS011;14238;49.496;8.154;2022-12-18T00:20:37;29.17;;;18.05;;
26594;SDS011;14238;49.496;8.154;2022-12-18T00:23:05;26.42;;;18.40;;
26594;SDS011;14238;49.496;8.154;2022-12-18T00:25:35;29.17;;;18.80;;
26594;SDS011;14238;49.496;8.154;2022-12-18T00:28:02;32.08;;;19.42;;
26594;SDS011;14238;49.496;8.154;2022-12-18T00:30:28;27.57;;;17.37;;
26594;SDS011;14238;49.496;8.154;2022-12-18T00:32:54;28.67;;;17.50;;
26594;SDS011;14238;49.496;8.154;2022-12-18T00:35:20;27.60;;;18.95;;
26594;SDS011;14238;49.496;8.154;2022-12-18T00:37:46;29.98;;;18.70;;
26594;SDS011;14238;49.496;8.154;2022-12-18T00:40:12;27.83;;;18.03;;
26594;SDS011;14238;49.496;8.154;2022-12-18T00:42:38;28.87;;;19.00;;
26594;SDS011;14238;49.496;8.154;2022-12-18T00:45:22;27.23;;;17.98;;
26594;SDS011;14238;49.496;8.154;2022-12-18T00:47:50;28.48;;;18.45;;
26594;SDS011;14238;49.496;8.154;2022-12-18T00:50:16;22.33;;;17.07;;
26594;SDS011;14238;49.496;8.154;2022-12-18T00:52:42;30.73;;;20.27;;
26594;SDS011;14238;49.496;8.154;2022-12-18T00:55:08;32.43;;;18.60;;
26594;SDS011;14238;49.496;8.154;2022-12-18T00:57:34;31.37;;;17.23;;
26594;SDS011;14238;49.496;8.154;2022-12-18T01:00:00;27.93;;;17.80;;
26594;SDS011;14238;49.496;8.154;2022-12-18T01:02:26;26.73;;;18.02;;
26594;SDS011;14238;49.496;8.154;2022-12-18T01:04:51;26.47;;;17.83;;
26594;SDS011;14238;49.496;8.154;2022-12-18T01:07:17;26.50;;;20.13;;
26594;SDS011;14238;49.496;8.154;2022-12-18T01:09:43;27.67;;;18.20;;
26594;SDS011;14238;49.496;8.154;2022-12-18T01:12:08;27.70;;;17.60;;
26594;SDS011;14238;49.496;8.154;2022-12-18T01:14:34;27.83;;;18.03;;
26594;SDS011;14238;49.496;8.154;2022-12-18T01:17:00;27.83;;;17.40;;
26594;SDS011;14238;49.496;8.154;2022-12-18T01:19:27;29.67;;;18.30;;
26594;SDS011;14238;49.496;8.154;2022-12-18T01:21:53;33.07;;;17.10;;
26594;SDS011;14238;49.496;8.154;2022-12-18T01:24:18;29.53;;;17.27;;
26594;SDS011;14238;49.496;8.154;2022-12-18T01:26:44;32.30;;;18.90;;
26594;SDS011;14238;49.496;8.154;2022-12-18T01:29:10;30.20;;;19.10;;
26594;SDS011;14238;49.496;8.154;2022-12-18T01:31:36;29.97;;;19.13;;
26594;SDS011;14238;49.496;8.154;2022-12-18T01:34:02;36.40;;;21.20;;
26594;SDS011;14238;49.496;8.154;2022-12-18T01:36:30;34.80;;;21.07;;
26594;SDS011;14238;49.496;8.154;2022-12-18T01:39:01;39.50;;;23.38;;
26594;SDS011;14238;49.496;8.154;2022-12-18T01:41:32;40.58;;;21.80;;
26594;SDS011;14238;49.496;8.154;2022-12-18T01:47:27;28.17;;;18.83;;
26594;SDS011;14238;49.496;8.154;2022-12-18T01:50:18;31.83;;;20.42;;
26594;SDS011;14238;49.496;8.154;2022-12-18T01:52:54;40.40;;;20.53;;
26594;SDS011;14238;49.496;8.154;2022-12-18T01:55:23;37.37;;;20.43;;
26594;SDS011;14238;49.496;8.154;2022-12-18T01:57:55;40.37;;;22.57;;
26594;SDS011;14238;49.496;8.154;2022-12-18T02:00:23;40.07;;;21.60;;
26594;SDS011;14238;49.496;8.154;2022-12-18T02:02:49;39.57;;;24.17;;
26594;SDS011;14238;49.496;8.154;2022-12-18T02:05:16;44.90;;;27.73;;
26594;SDS011;14238;49.496;8.154;2022-12-18T02:08:00;53.23;;;26.40;;
26594;SDS011;14238;49.496;8.154;2022-12-18T02:10:46;47.03;;;24.63;;
26594;SDS011;14238;49.496;8.154;2022-12-18T02:14:02;51.57;;;25.73;;
26594;SDS011;14238;49.496;8.154;2022-12-18T02:16:39;49.72;;;26.33;;
26594;SDS011;14238;49.496;8.154;2022-12-18T02:19:26;45.37;;;25.23;;
26594;SDS011;14238;49.496;8.154;2022-12-18T02:22:18;51.37;;;25.10;;
26594;SDS011;14238;49.496;8.154;2022-12-18T02:24:54;59.23;;;27.93;;
26594;SDS011;14238;49.496;8.154;2022-12-18T02:27:39;45.83;;;24.10;;
26594;SDS011;14238;49.496;8.154;2022-12-18T02:30:06;40.97;;;23.27;;
26594;SDS011;14238;49.496;8.154;2022-12-18T02:32:40;43.50;;;24.40;;
26594;SDS011;14238;49.496;8.154;2022-12-18T02:35:10;43.97;;;24.30;;
26594;SDS011;14238;49.496;8.154;2022-12-18T02:37:47;45.43;;;22.90;;
26594;SDS011;14238;49.496;8.154;2022-12-18T02:40:13;48.83;;;24.27;;
26594;SDS011;14238;49.496;8.154;2022-12-18T02:42:40;46.63;;;23.93;;
26594;SDS011;14238;49.496;8.154;2022-12-18T02:45:06;47.67;;;25.93;;
26594;SDS011;14238;49.496;8.154;2022-12-18T02:47:32;44.73;;;24.67;;
26594;SDS011;14238;49.496;8.154;2022-12-18T02:52:42;40.67;;;23.33;;
26594;SDS011;14238;49.496;8.154;2022-12-18T02:55:26;51.22;;;26.55;;
26594;SDS011;14238;49.496;8.154;2022-12-18T03:00:37;46.57;;;25.57;;
26594;SDS011;14238;49.496;8.154;2022-12-18T03:03:10;41.20;;;21.97;;
26594;SDS011;14238;49.496;8.154;2022-12-18T03:05:50;45.27;;;23.90;;
26594;SDS011;14238;49.496;8.154;2022-12-18T03:08:21;44.53;;;23.80;;
26594;SDS011;14238;49.496;8.154;2022-12-18T03:10:58;41.40;;;24.20;;
26594;SDS011;14238;49.496;8.154;2022-12-18T03:13:31;45.53;;;24.70;;
26594;SDS011;14238;49.496;8.154;2022-12-18T03:16:25;44.45;;;24.42;;
26594;SDS011;14238;49.496;8.154;2022-12-18T03:18:57;42.63;;;24.67;;
26594;SDS011;14238;49.496;8.154;2022-12-18T03:21:33;41.03;;;23.47;;
26594;SDS011;14238;49.496;8.154;2022-12-18T03:24:02;43.70;;;23.17;;
26594;SDS011;14238;49.496;8.154;2022-12-18T03:26:32;40.67;;;22.73;;
26594;SDS011;14238;49.496;8.154;2022-12-18T03:29:02;47.15;;;25.65;;
26594;SDS011;14238;49.496;8.154;2022-12-18T03:31:31;41.43;;;24.20;;
26594;SDS011;14238;49.496;8.154;2022-12-18T03:33:58;39.92;;;22.23;;
26594;SDS011;14238;49.496;8.154;2022-12-18T03:36:27;42.95;;;23.75;;
26594;SDS011;14238;49.496;8.154;2022-12-18T03:38:53;47.33;;;24.07;;
26594;SDS011;14238;49.496;8.154;2022-12-18T03:47:19;45.80;;;23.95;;
26594;SDS011;14238;49.496;8.154;2022-12-18T03:55:11;32.50;;;21.30;;
26594;SDS011;14238;49.496;8.154;2022-12-18T03:57:37;35.57;;;21.93;;
26594;SDS011;14238;49.496;8.154;2022-12-18T04:00:07;37.83;;;22.67;;
26594;SDS011;14238;49.496;8.154;2022-12-18T04:02:44;36.95;;;20.80;;
26594;SDS011;14238;49.496;8.154;2022-12-18T04:05:16;36.27;;;21.40;;
26594;SDS011;14238;49.496;8.154;2022-12-18T04:07:43;39.70;;;22.67;;
26594;SDS011;14238;49.496;8.154;2022-12-18T04:10:11;38.17;;;22.42;;
26594;SDS011;14238;49.496;8.154;2022-12-18T04:12:38;41.40;;;22.07;;
26594;SDS011;14238;49.496;8.154;2022-12-18T04:15:04;38.13;;;23.27;;
26594;SDS011;14238;49.496;8.154;2022-12-18T04:17:30;39.50;;;22.10;;
26594;SDS011;14238;49.496;8.154;2022-12-18T04:19:56;35.67;;;21.17;;
26594;SDS011;14238;49.496;8.154;2022-12-18T04:22:21;38.70;;;23.67;;
26594;SDS011;14238;49.496;8.154;2022-12-18T04:24:47;41.80;;;23.90;;
26594;SDS011;14238;49.496;8.154;2022-12-18T04:27:13;39.83;;;23.90;;
26594;SDS011;14238;49.496;8.154;2022-12-18T04:29:39;42.97;;;22.90;;
26594;SDS011;14238;49.496;8.154;2022-12-18T04:32:04;40.77;;;24.20;;
26594;SDS011;14238;49.496;8.154;2022-12-18T04:34:30;41.30;;;23.50;;
26594;SDS011;14238;49.496;8.154;2022-12-18T04:36:55;43.40;;;24.83;;
26594;SDS011;14238;49.496;8.154;2022-12-18T04:39:21;37.30;;;22.87;;
26594;SDS011;14238;49.496;8.154;2022-12-18T04:41:46;34.07;;;22.73;;
26594;SDS011;14238;49.496;8.154;2022-12-18T04:44:12;38.80;;;22.57;;
26594;SDS011;14238;49.496;8.154;2022-12-18T04:46:38;42.43;;;24.23;;
26594;SDS011;14238;49.496;8.154;2022-12-18T04:49:03;40.80;;;24.20;;
26594;SDS011;14238;49.496;8.154;2022-12-18T04:51:29;42.63;;;24.63;;
26594;SDS011;14238;49.496;8.154;2022-12-18T04:53:54;45.97;;;23.83;;
26594;SDS011;14238;49.496;8.154;2022-12-18T04:56:20;51.63;;;26.40;;
26594;SDS011;14238;49.496;8.154;2022-12-18T04:58:46;45.03;;;24.10;;
26594;SDS011;14238;49.496;8.154;2022-12-18T05:01:12;44.90;;;26.10;;
26594;SDS011;14238;49.496;8.154;2022-12-18T05:03:38;53.70;;;27.17;;
26594;SDS011;14238;49.496;8.154;2022-12-18T05:06:04;47.83;;;27.90;;
26594;SDS011;14238;49.496;8.154;2022-12-18T05:08:31;47.77;;;26.37;;
26594;SDS011;14238;49.496;8.154;2022-12-18T05:13:33;53.67;;;26.90;;
26594;SDS011;14238;49.496;8.154;2022-12-18T05:16:00;45.40;;;26.23;;
26594;SDS011;14238;49.496;8.154;2022-12-18T05:18:26;53.37;;;26.80;;
26594;SDS011;14238;49.496;8.154;2022-12-18T05:20:52;49.33;;;27.70;;
26594;SDS011;14238;49.496;8.154;2022-12-18T05:23:19;49.03;;;26.90;;
26594;SDS011;14238;49.496;8.154;2022-12-18T05:25:52;50.73;;;27.60;;
26594;SDS011;14238;49.496;8.154;2022-12-18T05:28:26;49.30;;;27.90;;
26594;SDS011;14238;49.496;8.154;2022-12-18T05:30:57;51.23;;;29.73;;
26594;SDS011;14238;49.496;8.154;2022-12-18T05:33:24;51.53;;;28.43;;
26594;SDS011;14238;49.496;8.154;2022-12-18T05:35:53;50.87;;;30.00;;
26594;SDS011;14238;49.496;8.154;2022-12-18T05:38:21;48.87;;;28.57;;
26594;SDS011;14238;49.496;8.154;2022-12-18T05:40:48;54.50;;;31.47;;
26594;SDS011;14238;49.496;8.154;2022-12-18T05:43:14;62.00;;;29.40;;
26594;SDS011;14238;49.496;8.154;2022-12-18T05:45:40;44.50;;;26.67;;
26594;SDS011;14238;49.496;8.154;2022-12-18T05:48:07;50.10;;;28.90;;
26594;SDS011;14238;49.496;8.154;2022-12-18T05:50:34;51.43;;;27.50;;
26594;SDS011;14238;49.496;8.154;2022-12-18T05:53:02;48.97;;;28.57;;
26594;SDS011;14238;49.496;8.154;2022-12-18T05:55:28;51.60;;;27.50;;
26594;SDS011;14238;49.496;8.154;2022-12-18T05:57:53;50.57;;;29.10;;
26594;SDS011;14238;49.496;8.154;2022-12-18T06:00:19;56.87;;;30.47;;
26594;SDS011;14238;49.496;8.154;2022-12-18T06:02:48;51.43;;;28.07;;
26594;SDS011;14238;49.496;8.154;2022-12-18T06:05:13;54.10;;;28.93;;
26594;SDS011;14238;49.496;8.154;2022-12-18T06:07:39;41.83;;;26.33;;
26594;SDS011;14238;49.496;8.154;2022-12-18T06:10:05;56.33;;;29.50;;
26594;SDS011;14238;49.496;8.154;2022-12-18T06:12:31;54.57;;;28.57;;
26594;SDS011;14238;49.496;8.154;2022-12-18T06:14:58;54.73;;;29.83;;
26594;SDS011;14238;49.496;8.154;2022-12-18T06:17:27;50.50;;;29.20;;
26594;SDS011;14238;49.496;8.154;2022-12-18T06:19:54;40.47;;;25.30;;
26594;SDS011;14238;49.496;8.154;2022-12-18T06:22:20;48.77;;;25.90;;
26594;SDS011;14238;49.496;8.154;2022-12-18T06:24:45;41.23;;;24.50;;
26594;SDS011;14238;49.496;8.154;2022-12-18T06:27:11;46.10;;;28.03;;
26594;SDS011;14238;49.496;8.154;2022-12-18T06:29:36;44.77;;;26.20;;
26594;SDS011;14238;49.496;8.154;2022-12-18T06:32:02;43.27;;;27.43;;
26594;SDS011;14238;49.496;8.154;2022-12-18T06:34:28;45.47;;;29.70;;
26594;SDS011;14238;49.496;8.154;2022-12-18T06:36:53;40.90;;;27.00;;
26594;SDS011;14238;49.496;8.154;2022-12-18T06:39:19;44.13;;;26.03;;
26594;SDS011;14238;49.496;8.154;2022-12-18T06:41:44;46.37;;;27.27;;
26594;SDS011;14238;49.496;8.154;2022-12-18T06:44:10;50.90;;;27.57;;
26594;SDS011;14238;49.496;8.154;2022-12-18T06:46:36;46.10;;;27.60;;
26594;SDS011;14238;49.496;8.154;2022-12-18T06:49:02;51.15;;;27.63;;
26594;SDS011;14238;49.496;8.154;2022-12-18T06:51:28;46.23;;;28.20;;
26594;SDS011;14238;49.496;8.154;2022-12-18T06:53:54;41.50;;;27.60;;
26594;SDS011;14238;49.496;8.154;2022-12-18T06:56:19;49.37;;;29.67;;
26594;SDS011;14238;49.496;8.154;2022-12-18T06:58:45;51.80;;;30.03;;
26594;SDS011;14238;49.496;8.154;2022-12-18T07:01:11;47.40;;;29.17;;
26594;SDS011;14238;49.496;8.154;2022-12-18T07:03:37;46.97;;;29.40;;
26594;SDS011;14238;49.496;8.154;2022-12-18T07:06:04;48.40;;;28.88;;
26594;SDS011;14238;49.496;8.154;2022-12-18T07:08:31;52.73;;;30.27;;
26594;SDS011;14238;49.496;8.154;2022-12-18T07:10:57;47.08;;;28.85;;
26594;SDS011;14238;49.496;8.154;2022-12-18T07:13:22;49.07;;;30.23;;
26594;SDS011;14238;49.496;8.154;2022-12-18T07:15:48;54.53;;;31.67;;
26594;SDS011;14238;49.496;8.154;2022-12-18T07:18:13;49.70;;;30.17;;
26594;SDS011;14238;49.496;8.154;2022-12-18T07:20:39;52.00;;;31.30;;
26594;SDS011;14238;49.496;8.154;2022-12-18T07:23:04;49.80;;;32.00;;
26594;SDS011;14238;49.496;8.154;2022-12-18T07:25:34;57.23;;;33.87;;
26594;SDS011;14238;49.496;8.154;2022-12-18T07:28:00;53.17;;;32.13;;
26594;SDS011;14238;49.496;8.154;2022-12-18T07:30:25;58.93;;;32.67;;
26594;SDS011;14238;49.496;8.154;2022-12-18T07:32:51;53.10;;;32.10;;
26594;SDS011;14238;49.496;8.154;2022-12-18T07:35:16;51.30;;;32.80;;
26594;SDS011;14238;49.496;8.154;2022-12-18T07:37:42;50.83;;;30.60;;
26594;SDS011;14238;49.496;8.154;2022-12-18T07:40:08;55.03;;;32.43;;
26594;SDS011;14238;49.496;8.154;2022-12-18T07:42:34;49.90;;;29.77;;
26594;SDS011;14238;49.496;8.154;2022-12-18T07:45:01;46.93;;;31.53;;
26594;SDS011;14238;49.496;8.154;2022-12-18T07:47:28;50.20;;;31.47;;
26594;SDS011;14238;49.496;8.154;2022-12-18T07:49:53;57.70;;;32.10;;
26594;SDS011;14238;49.496;8.154;2022-12-18T07:52:19;46.97;;;30.67;;
26594;SDS011;14238;49.496;8.154;2022-12-18T07:54:45;50.73;;;30.47;;
26594;SDS011;14238;49.496;8.154;2022-12-18T07:57:11;56.83;;;30.67;;
26594;SDS011;14238;49.496;8.154;2022-12-18T07:59:36;54.37;;;32.33;;
26594;SDS011;14238;49.496;8.154;2022-12-18T08:02:02;53.43;;;30.07;;
26594;SDS011;14238;49.496;8.154;2022-12-18T08:04:28;55.37;;;35.57;;
26594;SDS011;14238;49.496;8.154;2022-12-18T08:06:53;49.90;;;31.00;;
26594;SDS011;14238;49.496;8.154;2022-12-18T08:09:19;50.80;;;31.30;;
26594;SDS011;14238;49.496;8.154;2022-12-18T08:11:44;50.50;;;29.73;;
26594;SDS011;14238;49.496;8.154;2022-12-18T08:14:10;59.20;;;32.00;;
26594;SDS011;14238;49.496;8.154;2022-12-18T08:16:36;49.33;;;31.43;;
26594;SDS011;14238;49.496;8.154;2022-12-18T08:19:02;50.83;;;32.83;;
26594;SDS011;14238;49.496;8.154;2022-12-18T08:21:28;51.20;;;33.03;;
26594;SDS011;14238;49.496;8.154;2022-12-18T08:23:57;59.78;;;34.08;;
26594;SDS011;14238;49.496;8.154;2022-12-18T08:26:24;53.23;;;30.63;;
26594;SDS011;14238;49.496;8.154;2022-12-18T08:28:52;47.97;;;30.60;;
26594;SDS011;14238;49.496;8.154;2022-12-18T08:31:19;54.13;;;32.23;;
26594;SDS011;14238;49.496;8.154;2022-12-18T08:33:47;57.07;;;33.70;;
26594;SDS011;14238;49.496;8.154;2022-12-18T08:36:14;44.97;;;30.77;;
26594;SDS011;14238;49.496;8.154;2022-12-18T08:38:40;50.77;;;32.83;;
26594;SDS011;14238;49.496;8.154;2022-12-18T08:41:06;50.30;;;32.00;;
26594;SDS011;14238;49.496;8.154;2022-12-18T08:43:34;49.00;;;30.53;;
26594;SDS011;14238;49.496;8.154;2022-12-18T08:46:18;53.40;;;30.77;;
26594;SDS011;14238;49.496;8.154;2022-12-18T08:48:44;44.47;;;28.20;;
26594;SDS011;14238;49.496;8.154;2022-12-18T08:51:10;46.27;;;29.53;;
26594;SDS011;14238;49.496;8.154;2022-12-18T08:53:36;51.97;;;31.77;;
26594;SDS011;14238;49.496;8.154;2022-12-18T08:56:02;47.77;;;32.03;;
26594;SDS011;14238;49.496;8.154;2022-12-18T08:58:28;60.70;;;34.07;;
26594;SDS011;14238;49.496;8.154;2022-12-18T09:00:54;49.47;;;31.83;;
26594;SDS011;14238;49.496;8.154;2022-12-18T09:03:24;46.95;;;30.80;;
26594;SDS011;14238;49.496;8.154;2022-12-18T09:05:49;47.60;;;30.40;;
26594;SDS011;14238;49.496;8.154;2022-12-18T09:08:15;48.33;;;31.93;;
26594;SDS011;14238;49.496;8.154;2022-12-18T09:10:41;46.83;;;29.00;;
26594;SDS011;14238;49.496;8.154;2022-12-18T09:13:09;50.50;;;32.77;;
26594;SDS011;14238;49.496;8.154;2022-12-18T09:15:39;52.53;;;33.97;;
26594;SDS011;14238;49.496;8.154;2022-12-18T09:18:06;54.20;;;32.33;;
26594;SDS011;14238;49.496;8.154;2022-12-18T09:20:32;53.30;;;32.47;;
26594;SDS011;14238;49.496;8.154;2022-12-18T09:22:58;46.37;;;32.80;;
26594;SDS011;14238;49.496;8.154;2022-12-18T09:25:23;56.30;;;35.97;;
26594;SDS011;14238;49.496;8.154;2022-12-18T09:27:49;51.33;;;32.73;;
26594;SDS011;14238;49.496;8.154;2022-12-18T09:30:14;55.70;;;34.10;;
26594;SDS011;14238;49.496;8.154;2022-12-18T09:32:40;59.40;;;34.70;;
26594;SDS011;14238;49.496;8.154;2022-12-18T09:35:05;51.90;;;32.47;;
26594;SDS011;14238;49.496;8.154;2022-12-18T09:37:31;48.93;;;30.87;;
26594;SDS011;14238;49.496;8.154;2022-12-18T09:39:57;53.47;;;31.93;;
26594;SDS011;14238;49.496;8.154;2022-12-18T09:42:22;46.27;;;29.37;;
26594;SDS011;14238;49.496;8.154;2022-12-18T09:44:49;47.93;;;31.73;;
26594;SDS011;14238;49.496;8.154;2022-12-18T09:49:49;48.10;;;32.13;;
26594;SDS011;14238;49.496;8.154;2022-12-18T09:58:13;46.10;;;30.27;;
26594;SDS011;14238;49.496;8.154;2022-12-18T10:00:39;48.13;;;32.43;;
26594;SDS011;14238;49.496;8.154;2022-12-18T10:03:12;49.27;;;32.63;;
26594;SDS011;14238;49.496;8.154;2022-12-18T10:11:28;50.43;;;32.60;;
26594;SDS011;14238;49.496;8.154;2022-12-18T10:14:10;57.87;;;34.50;;
26594;SDS011;14238;49.496;8.154;2022-12-18T10:19:37;44.53;;;30.13;;
26594;SDS011;14238;49.496;8.154;2022-12-18T10:27:21;47.60;;;30.77;;
26594;SDS011;14238;49.496;8.154;2022-12-18T10:29:49;48.60;;;31.80;;
26594;SDS011;14238;49.496;8.154;2022-12-18T10:32:19;53.00;;;32.00;;
26594;SDS011;14238;49.496;8.154;2022-12-18T10:34:53;53.17;;;37.33;;
26594;SDS011;14238;49.496;8.154;2022-12-18T10:37:22;54.67;;;33.10;;
26594;SDS011;14238;49.496;8.154;2022-12-18T10:40:13;48.97;;;33.07;;
26594;SDS011;14238;49.496;8.154;2022-12-18T10:42:39;46.13;;;29.53;;
26594;SDS011;14238;49.496;8.154;2022-12-18T10:45:15;51.50;;;32.47;;
26594;SDS011;14238;49.496;8.154;2022-12-18T10:47:45;49.63;;;30.30;;
26594;SDS011;14238;49.496;8.154;2022-12-18T10:50:20;46.00;;;30.53;;
26594;SDS011;14238;49.496;8.154;2022-12-18T10:52:53;48.87;;;32.47;;
26594;SDS011;14238;49.496;8.154;2022-12-18T10:55:20;45.90;;;29.60;;
26594;SDS011;14238;49.496;8.154;2022-12-18T10:57:46;46.97;;;30.17;;
26594;SDS011;14238;49.496;8.154;2022-12-18T11:00:20;46.27;;;29.17;;
26594;SDS011;14238;49.496;8.154;2022-12-18T11:02:54;45.13;;;28.80;;
26594;SDS011;14238;49.496;8.154;2022-12-18T11:07:50;48.57;;;28.27;;
26594;SDS011;14238;49.496;8.154;2022-12-18T11:10:19;48.80;;;33.47;;
26594;SDS011;14238;49.496;8.154;2022-12-18T11:12:46;48.17;;;30.77;;
26594;SDS011;14238;49.496;8.154;2022-12-18T11:15:19;52.23;;;35.23;;
26594;SDS011;14238;49.496;8.154;2022-12-18T11:17:48;51.77;;;33.63;;
26594;SDS011;14238;49.496;8.154;2022-12-18T11:20:34;47.73;;;32.37;;
26594;SDS011;14238;49.496;8.154;2022-12-18T11:23:21;49.70;;;30.03;;
26594;SDS011;14238;49.496;8.154;2022-12-18T11:25:52;52.90;;;30.80;;
26594;SDS011;14238;49.496;8.154;2022-12-18T11:28:27;45.87;;;29.37;;
26594;SDS011;14238;49.496;8.154;2022-12-18T11:31:35;43.23;;;29.57;;
26594;SDS011;14238;49.496;8.154;2022-12-18T11:34:09;48.87;;;31.13;;
26594;SDS011;14238;49.496;8.154;2022-12-18T11:36:38;46.30;;;28.47;;
26594;SDS011;14238;49.496;8.154;2022-12-18T11:39:11;38.70;;;26.10;;
26594;SDS011;14238;49.496;8.154;2022-12-18T11:42:13;36.70;;;23.83;;
26594;SDS011;14238;49.496;8.154;2022-12-18T11:50:12;50.17;;;29.10;;
26594;SDS011;14238;49.496;8.154;2022-12-18T11:52:42;49.13;;;30.60;;
26594;SDS011;14238;49.496;8.154;2022-12-18T11:55:12;45.63;;;29.90;;
26594;SDS011;14238;49.496;8.154;2022-12-18T12:00:47;51.63;;;29.67;;
26594;SDS011;14238;49.496;8.154;2022-12-18T12:03:24;49.47;;;32.80;;
26594;SDS011;14238;49.496;8.154;2022-12-18T12:06:28;52.73;;;33.10;;
26594;SDS011;14238;49.496;8.154;2022-12-18T12:11:58;56.70;;;33.10;;
26594;SDS011;14238;49.496;8.154;2022-12-18T12:20:12;43.87;;;29.50;;
26594;SDS011;14238;49.496;8.154;2022-12-18T12:25:33;52.13;;;31.43;;
26594;SDS011;14238;49.496;8.154;2022-12-18T12:33:40;48.33;;;33.00;;
26594;SDS011;14238;49.496;8.154;2022-12-18T12:38:46;46.97;;;31.30;;
26594;SDS011;14238;49.496;8.154;2022-12-18T12:41:17;54.40;;;33.53;;
26594;SDS011;14238;49.496;8.154;2022-12-18T12:44:06;50.03;;;34.83;;
26594;SDS011;14238;49.496;8.154;2022-12-18T12:46:35;58.20;;;34.77;;
26594;SDS011;14238;49.496;8.154;2022-12-18T12:49:04;52.20;;;32.83;;
26594;SDS011;14238;49.496;8.154;2022-12-18T12:51:37;50.37;;;32.47;;
26594;SDS011;14238;49.496;8.154;2022-12-18T12:54:10;53.27;;;33.77;;
26594;SDS011;14238;49.496;8.154;2022-12-18T12:56:48;53.60;;;32.83;;
26594;SDS011;14238;49.496;8.154;2022-12-18T13:08:09;51.07;;;32.17;;
26594;SDS011;14238;49.496;8.154;2022-12-18T13:10:36;50.17;;;33.23;;
26594;SDS011;14238;49.496;8.154;2022-12-18T13:13:07;46.27;;;30.70;;
26594;SDS011;14238;49.496;8.154;2022-12-18T13:15:36;53.53;;;32.43;;
26594;SDS011;14238;49.496;8.154;2022-12-18T13:18:11;49.23;;;33.47;;
26594;SDS011;14238;49.496;8.154;2022-12-18T13:20:41;48.07;;;31.47;;
26594;SDS011;14238;49.496;8.154;2022-12-18T13:23:19;44.47;;;31.20;;
26594;SDS011;14238;49.496;8.154;2022-12-18T13:25:51;55.17;;;34.10;;
26594;SDS011;14238;49.496;8.154;2022-12-18T13:28:23;50.20;;;33.37;;
26594;SDS011;14238;49.496;8.154;2022-12-18T13:30:58;47.13;;;32.13;;
26594;SDS011;14238;49.496;8.154;2022-12-18T13:39:42;46.30;;;32.00;;
26594;SDS011;14238;49.496;8.154;2022-12-18T13:41:43;45.23;;;31.43;;
26594;SDS011;14238;49.496;8.154;2022-12-18T13:47:02;48.47;;;32.03;;
26594;SDS011;14238;49.496;8.154;2022-12-18T13:52:19;47.07;;;30.37;;
26594;SDS011;14238;49.496;8.154;2022-12-18T13:54:50;48.83;;;31.67;;
26594;SDS011;14238;49.496;8.154;2022-12-18T13:57:33;49.03;;;31.13;;
26594;SDS011;14238;49.496;8.154;2022-12-18T14:02:53;45.80;;;30.40;;
26594;SDS011;14238;49.496;8.154;2022-12-18T14:05:26;46.50;;;31.00;;
26594;SDS011;14238;49.496;8.154;2022-12-18T14:07:53;48.50;;;30.77;;
26594;SDS011;14238;49.496;8.154;2022-12-18T14:10:19;52.20;;;33.70;;
26594;SDS011;14238;49.496;8.154;2022-12-18T14:12:47;46.10;;;31.00;;
26594;SDS011;14238;49.496;8.154;2022-12-18T14:15:25;48.07;;;31.27;;
26594;SDS011;14238;49.496;8.154;2022-12-18T14:20:45;48.83;;;31.10;;
26594;SDS011;14238;49.496;8.154;2022-12-18T14:28:54;47.33;;;28.77;;
26594;SDS011;14238;49.496;8.154;2022-12-18T14:31:22;45.33;;;32.20;;
26594;SDS011;14238;49.496;8.154;2022-12-18T14:33:50;47.73;;;30.77;;
26594;SDS011;14238;49.496;8.154;2022-12-18T14:36:17;43.93;;;31.33;;
26594;SDS011;14238;49.496;8.154;2022-12-18T14:38:48;47.97;;;30.70;;
26594;SDS011;14238;49.496;8.154;2022-12-18T14:41:19;49.40;;;30.97;;
26594;SDS011;14238;49.496;8.154;2022-12-18T14:43:49;50.23;;;33.90;;
26594;SDS011;14238;49.496;8.154;2022-12-18T14:49:00;48.50;;;30.67;;
26594;SDS011;14238;49.496;8.154;2022-12-18T14:52:32;43.47;;;29.53;;
26594;SDS011;14238;49.496;8.154;2022-12-18T14:54:49;47.37;;;28.30;;
26594;SDS011;14238;49.496;8.154;2022-12-18T14:57:22;51.30;;;32.17;;
26594;SDS011;14238;49.496;8.154;2022-12-18T14:59:50;49.37;;;32.43;;
26594;SDS011;14238;49.496;8.154;2022-12-18T15:04:59;43.87;;;29.43;;
26594;SDS011;14238;49.496;8.154;2022-12-18T15:07:39;44.57;;;29.70;;
26594;SDS011;14238;49.496;8.154;2022-12-18T15:10:13;48.73;;;31.30;;
26594;SDS011;14238;49.496;8.154;2022-12-18T15:12:42;47.00;;;31.20;;
26594;SDS011;14238;49.496;8.154;2022-12-18T15:18:12;48.60;;;31.63;;
26594;SDS011;14238;49.496;8.154;2022-12-18T15:26:01;46.70;;;27.90;;
26594;SDS011;14238;49.496;8.154;2022-12-18T15:33:39;43.63;;;29.70;;
26594;SDS011;14238;49.496;8.154;2022-12-18T15:36:09;43.87;;;28.47;;
26594;SDS011;14238;49.496;8.154;2022-12-18T15:38:36;48.27;;;29.07;;
26594;SDS011;14238;49.496;8.154;2022-12-18T15:41:02;41.70;;;28.43;;
26594;SDS011;14238;49.496;8.154;2022-12-18T15:43:28;48.10;;;30.40;;
26594;SDS011;14238;49.496;8.154;2022-12-18T15:46:19;42.73;;;28.33;;
26594;SDS011;14238;49.496;8.154;2022-12-18T15:48:47;46.43;;;29.90;;
26594;SDS011;14238;49.496;8.154;2022-12-18T15:51:18;43.50;;;27.83;;
26594;SDS011;14238;49.496;8.154;2022-12-18T15:53:44;45.17;;;30.03;;
26594;SDS011;14238;49.496;8.154;2022-12-18T15:56:12;47.13;;;31.27;;
26594;SDS011;14238;49.496;8.154;2022-12-18T15:58:57;47.53;;;30.47;;
26594;SDS011;14238;49.496;8.154;2022-12-18T16:01:23;45.80;;;28.20;;
26594;SDS011;14238;49.496;8.154;2022-12-18T16:03:51;48.40;;;30.80;;
26594;SDS011;14238;49.496;8.154;2022-12-18T16:06:18;44.20;;;29.73;;
26594;SDS011;14238;49.496;8.154;2022-12-18T16:08:43;45.67;;;29.43;;
26594;SDS011;14238;49.496;8.154;2022-12-18T16:11:16;44.30;;;27.50;;
26594;SDS011;14238;49.496;8.154;2022-12-18T16:14:06;42.40;;;27.40;;
26594;SDS011;14238;49.496;8.154;2022-12-18T16:16:43;46.13;;;30.43;;
26594;SDS011;14238;49.496;8.154;2022-12-18T16:19:10;49.97;;;30.27;;
26594;SDS011;14238;49.496;8.154;2022-12-18T16:21:36;48.90;;;29.63;;
26594;SDS011;14238;49.496;8.154;2022-12-18T16:24:01;48.07;;;30.13;;
26594;SDS011;14238;49.496;8.154;2022-12-18T16:26:27;45.90;;;29.10;;
26594;SDS011;14238;49.496;8.154;2022-12-18T16:28:52;46.33;;;29.30;;
26594;SDS011;14238;49.496;8.154;2022-12-18T16:31:18;46.50;;;30.37;;
26594;SDS011;14238;49.496;8.154;2022-12-18T16:33:44;47.17;;;28.50;;
26594;SDS011;14238;49.496;8.154;2022-12-18T16:36:09;50.50;;;29.03;;
26594;SDS011;14238;49.496;8.154;2022-12-18T16:38:35;42.27;;;26.33;;
26594;SDS011;14238;49.496;8.154;2022-12-18T16:41:01;49.03;;;30.50;;